Time;durP1;ratioP1;P1;durP2;ratioP2;P2;SDS_P1;SDS_P2;PMS_P1;PMS_P2;Temp;Humidity;BMP_temperature;BMP_pressure;BME280_temperature;BME280_humidity;BME280_pressure;Samples;Min_cycle;Max_cycle;Signal;HPM_P1;HPM_P2
2022/08/13 00:01:11;;;;;;;;;;;;;;;21.21;100.00;148053.16;5079935;28;19921;-78
2022/08/13 00:03:42;;;;;;;;;;;;;;;21.15;100.00;148040.34;5072283;28;19920;-79
2022/08/13 00:06:08;;;;;;;;;;;;;;;21.03;100.00;148009.59;5075515;28;19945;-76
2022/08/13 00:08:35;;;;;;;;;;;;;;;20.91;100.00;147980.13;5084678;28;20003;-76
2022/08/13 00:11:01;;;;;;;;;;;;;;;20.78;100.00;147948.06;5071232;28;19917;-76
2022/08/13 00:13:28;;;;;;;;;;;;;;;20.82;100.00;147957.06;5072499;28;19932;-75
2022/08/13 00:15:53;;;;;;;;;;;;;;;20.88;100.00;147972.44;5077631;28;19965;-77
2022/08/13 00:18:19;;;;;;;;;;;;;;;20.85;100.00;147964.75;5071066;28;20007;-77
2022/08/13 00:20:53;;;;;;;;;;;;;;;20.73;100.00;147934.00;5072335;28;19916;-75
2022/08/13 00:23:20;;;;;;;;;;;;;;;20.67;100.00;147919.88;5067332;28;19928;-78
2022/08/13 00:25:46;;;;;;;;;;;;;;;20.53;100.00;147883.97;5074895;28;19927;-77
2022/08/13 00:28:14;;;;;;;;;;;;;;;20.61;100.00;147904.47;5089963;28;19992;-76
2022/08/13 00:30:40;;;;;;;;;;;;;;;20.68;100.00;147922.47;5072023;28;19912;-76
2022/08/13 00:33:12;;;;;;;;;;;;;;;20.74;100.00;147937.84;5080734;28;19928;-78
2022/08/13 00:35:38;;;;;;;;;;;;;;;20.79;100.00;147950.66;5094610;28;19916;-77
2022/08/13 00:38:13;;;;;;;;;;;;;;;20.77;100.00;147944.22;5084137;28;20376;-78
2022/08/13 00:40:47;;;;;;;;;;;;;;;20.80;100.00;147951.91;5091082;28;20376;-77
2022/08/13 00:43:17;;;;;;;;;;;;;;;20.86;100.00;147967.28;5086117;28;19924;-78
2022/08/13 00:45:42;;;;;;;;;;;;;;;20.81;100.00;147954.50;5082716;28;19917;-79
2022/08/13 00:50:53;;;;;;;;;;;;;;;20.79;100.00;147950.66;5090690;28;19943;-77
2022/08/13 00:53:24;;;;;;;;;;;;;;;20.78;100.00;147948.06;5095477;28;20019;-78
2022/08/13 00:55:55;;;;;;;;;;;;;;;20.77;100.00;147945.53;5083758;28;19959;-76
2022/08/13 00:58:22;;;;;;;;;;;;;;;20.78;100.00;147948.06;5074527;28;19924;-77
2022/08/13 01:00:48;;;;;;;;;;;;;;;20.76;100.00;147942.94;5079998;28;19920;-75
2022/08/13 01:03:18;;;;;;;;;;;;;;;20.76;100.00;147942.94;5074933;28;19920;-77
2022/08/13 01:05:44;;;;;;;;;;;;;;;20.75;100.00;147939.09;5089631;28;19978;-78
2022/08/13 01:08:10;;;;;;;;;;;;;;;20.73;100.00;147934.00;5085392;28;19943;-78
2022/08/13 01:10:37;;;;;;;;;;;;;;;20.71;100.00;147930.16;5074226;28;20314;-77
2022/08/13 01:13:07;;;;;;;;;;;;;;;20.68;100.00;147922.47;5075526;28;19931;-77
2022/08/13 01:15:34;;;;;;;;;;;;;;;20.70;100.00;147927.56;5083334;28;19924;-78
2022/08/13 01:18:00;;;;;;;;;;;;;;;20.68;100.00;147922.47;5094167;28;20004;-77
2022/08/13 01:20:26;;;;;;;;;;;;;;;20.65;100.00;147914.78;5080151;28;20319;-78
2022/08/13 01:22:55;;;;;;;;;;;;;;;20.63;100.00;147910.88;5078757;28;19928;-77
2022/08/13 01:25:21;;;;;;;;;;;;;;;20.60;100.00;147903.19;5093774;28;19920;-76
2022/08/13 01:27:50;;;;;;;;;;;;;;;20.55;100.00;147889.09;5094898;28;19916;-79
2022/08/13 01:30:16;;;;;;;;;;;;;;;20.55;100.00;147890.34;5083773;28;19927;-77
2022/08/13 01:32:45;;;;;;;;;;;;;;;20.55;100.00;147889.09;5084140;28;19959;-79
2022/08/13 01:35:10;;;;;;;;;;;;;;;20.54;100.00;147886.50;5089302;28;19920;-78
2022/08/13 01:37:37;;;;;;;;;;;;;;;20.52;100.00;147881.41;5074779;28;19927;-80
2022/08/13 01:40:04;;;;;;;;;;;;;;;20.45;100.00;147864.75;5083682;28;19998;-77
2022/08/13 01:42:42;;;;;;;;;;;;;;;20.41;100.00;147855.75;5086434;28;19917;-78
2022/08/13 01:45:08;;;;;;;;;;;;;;;20.40;100.00;147853.22;5065249;28;20390;-77
2022/08/13 01:50:30;;;;;;;;;;;;;;;20.26;100.00;147817.38;5075411;28;19923;-78
2022/08/13 01:53:02;;;;;;;;;;;;;;;20.18;100.00;147796.84;5073907;28;19912;-80
2022/08/13 01:55:29;;;;;;;;;;;;;;;20.14;100.00;147786.63;5108478;28;20440;-80
2022/08/13 01:57:54;;;;;;;;;;;;;;;20.09;100.00;147776.38;5073758;28;19916;-79
2022/08/13 02:00:21;;;;;;;;;;;;;;;20.09;100.00;147776.38;5073076;28;19923;-75
2022/08/13 02:02:48;;;;;;;;;;;;;;;20.09;100.00;147776.38;5074223;28;19917;-76
2022/08/13 02:05:13;;;;;;;;;;;;;;;20.07;100.00;147771.25;5089711;28;19924;-77
2022/08/13 02:07:39;;;;;;;;;;;;;;;20.05;100.00;147766.09;5072468;28;20384;-75
2022/08/13 02:10:05;;;;;;;;;;;;;;;20.00;100.00;147753.31;5072429;28;20376;-74
2022/08/13 02:12:32;;;;;;;;;;;;;;;19.93;100.00;147735.38;5087966;28;19963;-75
2022/08/13 02:14:58;;;;;;;;;;;;;;;19.88;100.00;147722.56;5086170;28;19944;-75
2022/08/13 02:17:27;;;;;;;;;;;;;;;19.90;100.00;147729.00;5073215;28;19928;-75
2022/08/13 02:19:56;;;;;;;;;;;;;;;19.83;100.00;147711.03;5083618;28;19924;-78
2022/08/13 02:22:24;;;;;;;;;;;;;;;19.82;100.00;147708.47;5077972;28;20357;-75
2022/08/13 02:24:53;;;;;;;;;;;;;;;19.82;100.00;147708.47;5089768;28;19923;-75
2022/08/13 02:27:24;;;;;;;;;;;;;;;19.77;100.00;147695.69;5072179;28;19916;-75
2022/08/13 02:29:50;;;;;;;;;;;;;;;19.79;100.00;147700.78;5078362;28;19952;-75
2022/08/13 02:32:16;;;;;;;;;;;;;;;19.73;100.00;147685.38;5092813;28;19916;-76
2022/08/13 02:34:43;;;;;;;;;;;;;;;19.72;100.00;147684.09;5092339;28;20303;-75
2022/08/13 02:37:10;;;;;;;;;;;;;;;19.64;100.00;147663.63;5061195;28;20556;-75
2022/08/13 02:39:36;;;;;;;;;;;;;;;19.58;100.00;147648.25;5085039;28;20310;-78
2022/08/13 02:42:01;;;;;;;;;;;;;;;19.53;100.00;147636.75;5092009;28;19920;-76
2022/08/13 02:44:28;;;;;;;;;;;;;;;19.49;100.00;147625.22;5092882;28;19966;-76
2022/08/13 02:46:53;;;;;;;;;;;;;;;19.47;100.00;147620.09;5091410;28;19920;-76
2022/08/13 02:49:21;;;;;;;;;;;;;;;19.41;100.00;147606.00;5085122;28;19928;-78
2022/08/13 02:51:47;;;;;;;;;;;;;;;19.43;100.00;147611.13;5073726;28;19969;-77
2022/08/13 02:54:13;;;;;;;;;;;;;;;19.38;100.00;147599.59;5071757;28;19920;-77
2022/08/13 02:56:39;;;;;;;;;;;;;;;19.33;100.00;147586.81;5086932;28;20435;-75
2022/08/13 02:59:08;;;;;;;;;;;;;;;19.31;100.00;147581.69;5090745;28;20015;-77
2022/08/13 03:01:35;;;;;;;;;;;;;;;19.28;100.00;147574.03;5080872;28;19925;-75
2022/08/13 03:04:02;;;;;;;;;;;;;;;19.33;100.00;147585.53;5105621;28;19916;-76
2022/08/13 03:06:27;;;;;;;;;;;;;;;19.19;100.00;147550.97;5092342;28;19931;-77
2022/08/13 03:08:52;;;;;;;;;;;;;;;19.13;100.00;147535.63;5092041;28;19921;-76
2022/08/13 03:11:19;;;;;;;;;;;;;;;19.09;100.00;147526.63;5083525;28;20032;-75
2022/08/13 03:13:47;;;;;;;;;;;;;;;19.03;100.00;147511.25;5084546;28;20011;-75
2022/08/13 03:16:16;;;;;;;;;;;;;;;19.07;100.00;147520.25;5075323;28;19960;-76
2022/08/13 03:18:42;;;;;;;;;;;;;;;18.99;100.00;147502.31;5071738;28;19929;-77
2022/08/13 03:21:07;;;;;;;;;;;;;;;19.02;100.00;147510.00;5078789;28;20003;-77
2022/08/13 03:23:35;;;;;;;;;;;;;;;18.89;100.00;147476.72;5091700;28;19969;-75
2022/08/13 03:26:00;;;;;;;;;;;;;;;18.75;100.00;147440.84;5079368;28;20014;-76
2022/08/13 03:28:26;;;;;;;;;;;;;;;18.52;100.00;147383.25;5071570;28;19960;-76
2022/08/13 03:30:51;;;;;;;;;;;;;;;18.47;100.00;147371.75;5075429;28;19931;-76
2022/08/13 03:33:17;;;;;;;;;;;;;;;18.35;100.00;147342.34;5091072;28;20333;-76
2022/08/13 03:35:43;;;;;;;;;;;;;;;18.33;100.00;147335.94;5085995;28;19924;-76
2022/08/13 03:38:10;;;;;;;;;;;;;;;18.28;100.00;147325.69;5088723;28;20404;-76
2022/08/13 03:43:20;;;;;;;;;;;;;;;18.20;100.00;147305.22;5093343;28;20272;-75
2022/08/13 03:45:46;;;;;;;;;;;;;;;18.19;100.00;147301.41;5079414;28;19916;-75
2022/08/13 03:48:15;;;;;;;;;;;;;;;18.20;100.00;147303.97;5071793;28;19917;-76
2022/08/13 03:50:41;;;;;;;;;;;;;;;18.23;100.00;147312.91;5090539;28;19916;-77
2022/08/13 03:53:09;;;;;;;;;;;;;;;18.26;100.00;147319.31;5091669;28;19920;-77
2022/08/13 03:55:37;;;;;;;;;;;;;;;18.33;100.00;147337.19;5091878;28;19920;-74
2022/08/13 03:58:03;;;;;;;;;;;;;;;18.40;100.00;147353.84;5080519;28;19920;-76
2022/08/13 04:00:29;;;;;;;;;;;;;;;18.45;100.00;147366.63;5071983;28;20269;-76
2022/08/13 04:03:00;;;;;;;;;;;;;;;18.47;100.00;147371.75;5091524;28;20447;-78
2022/08/13 04:05:26;;;;;;;;;;;;;;;18.44;100.00;147365.38;5078970;28;19924;-76
2022/08/13 04:07:52;;;;;;;;;;;;;;;18.37;100.00;147346.19;5087805;28;19916;-77
2022/08/13 04:10:17;;;;;;;;;;;;;;;18.36;100.00;147343.63;5079532;28;19923;-77
2022/08/13 04:12:44;;;;;;;;;;;;;;;18.39;100.00;147352.56;5071309;28;20300;-77
2022/08/13 04:15:09;;;;;;;;;;;;;;;18.47;100.00;147371.75;5081067;28;19912;-77
2022/08/13 04:17:36;;;;;;;;;;;;;;;18.42;100.00;147358.97;5091768;28;20429;-78
2022/08/13 04:20:02;;;;;;;;;;;;;;;18.45;100.00;147367.91;5086453;28;19924;-76
2022/08/13 04:22:29;;;;;;;;;;;;;;;18.44;100.00;147364.06;5071874;28;19920;-78
2022/08/13 04:24:55;;;;;;;;;;;;;;;18.39;100.00;147351.28;5071517;28;19923;-77
2022/08/13 04:27:20;;;;;;;;;;;;;;;18.38;100.00;147348.72;5071816;28;20288;-78
2022/08/13 04:29:46;;;;;;;;;;;;;;;18.43;100.00;147362.81;5081232;28;19917;-75
2022/08/13 04:32:11;;;;;;;;;;;;;;;18.47;100.00;147371.75;5087704;28;19929;-74
2022/08/13 04:34:36;;;;;;;;;;;;;;;18.51;100.00;147382.00;5055776;28;19928;-77
2022/08/13 04:37:02;;;;;;;;;;;;;;;18.53;100.00;147385.84;5087685;28;19931;-76
2022/08/13 04:39:27;;;;;;;;;;;;;;;18.52;100.00;147383.25;5072814;28;19966;-76
2022/08/13 04:41:53;;;;;;;;;;;;;;;18.53;100.00;147387.09;5082192;28;19924;-79
2022/08/13 04:44:20;;;;;;;;;;;;;;;18.50;100.00;147379.41;5092140;28;20078;-78
2022/08/13 04:46:45;;;;;;;;;;;;;;;18.59;100.00;147401.19;5089757;28;19922;-78
2022/08/13 04:49:12;;;;;;;;;;;;;;;18.73;100.00;147435.72;5090110;28;20018;-77
2022/08/13 04:51:37;;;;;;;;;;;;;;;18.69;100.00;147425.47;5091032;28;19916;-77
2022/08/13 04:54:07;;;;;;;;;;;;;;;19.11;100.00;147530.47;5087561;28;19924;-76
2022/08/13 04:56:33;;;;;;;;;;;;;;;19.61;100.00;147655.94;5083375;28;20372;-76
2022/08/13 04:58:58;;;;;;;;;;;;;;;19.54;100.00;147639.31;5074447;28;19927;-75
2022/08/13 05:01:23;;;;;;;;;;;;;;;19.48;100.00;147622.63;5090502;28;19927;-77
2022/08/13 05:03:51;;;;;;;;;;;;;;;19.34;100.00;147588.06;5090491;28;19912;-76
2022/08/13 05:06:19;;;;;;;;;;;;;;;19.12;100.00;147534.31;5071420;28;19928;-74
2022/08/13 05:08:48;;;;;;;;;;;;;;;19.16;100.00;147544.56;5073271;28;19917;-75
2022/08/13 05:11:14;;;;;;;;;;;;;;;19.67;100.00;147671.31;5078120;28;19916;-80
2022/08/13 05:13:52;;;;;;;;;;;;;;;20.51;100.00;147878.81;5091892;28;19927;-77
2022/08/13 05:16:18;;;;;;;;;;;;;;;20.66;100.00;147916.03;5091991;28;19937;-79
2022/08/13 05:18:54;;;;;;;;;;;;;;;20.50;100.00;147876.28;5095054;28;19951;-79
2022/08/13 05:21:22;;;;;;;;;;;;;;;20.64;100.00;147912.16;5088040;28;20403;-78
2022/08/13 05:24:00;;;;;;;;;;;;;;;20.54;100.00;147886.50;5078528;28;19960;-80
2022/08/13 05:26:29;;;;;;;;;;;;;;;20.83;100.00;147959.59;5084381;28;19917;-79
2022/08/13 05:28:56;;;;;;;;;;;;;;;21.14;100.00;148036.50;5075573;28;19916;-78
2022/08/13 05:31:22;;;;;;;;;;;;;;;21.06;100.00;148016.00;5089832;28;19939;-78
2022/08/13 05:33:52;;;;;;;;;;;;;;;20.92;100.00;147981.41;5107415;28;20265;-77
2022/08/13 05:36:18;;;;;;;;;;;;;;;20.87;100.00;147969.88;5091524;28;19934;-79
2022/08/13 05:38:43;;;;;;;;;;;;;;;21.09;100.00;148023.69;5093070;28;19916;-75
2022/08/13 05:41:11;;;;;;;;;;;;;;;21.56;100.00;148141.66;5078785;28;20012;-79
2022/08/13 05:43:37;;;;;;;;;;;;;;;22.72;100.00;148430.31;5073796;28;19913;-76
2022/08/13 05:46:04;;;;;;;;;;;;;;;22.69;100.00;148422.63;5073434;28;19920;-78
2022/08/13 05:48:39;;;;;;;;;;;;;;;22.35;100.00;148337.94;5073677;28;19959;-77
2022/08/13 05:51:07;;;;;;;;;;;;;;;22.95;100.00;148488.06;5072607;28;19913;-77
2022/08/13 05:53:33;;;;;;;;;;;;;;;23.88;100.00;148720.50;5073175;28;19927;-77
2022/08/13 05:55:58;;;;;;;;;;;;;;;25.46;100.00;149113.72;5073195;28;19912;-78
2022/08/13 05:58:24;;;;;;;;;;;;;;;26.08;100.00;149270.59;5072041;28;19921;-78
2022/08/13 06:03:35;;;;;;;;;;;;;;;26.28;100.00;149319.47;5073281;28;20323;-75
2022/08/13 06:06:02;;;;;;;;;;;;;;;25.73;100.00;149183.13;5105933;28;19950;-77
2022/08/13 06:08:30;;;;;;;;;;;;;;;24.79;100.00;148946.59;5072823;28;19920;-75
2022/08/13 06:10:59;;;;;;;;;;;;;;;24.09;100.00;148771.88;5074149;28;19935;-75
2022/08/13 06:13:25;;;;;;;;;;;;;;;23.94;100.00;148735.91;5075850;28;19916;-76
2022/08/13 06:15:58;;;;;;;;;;;;;;;23.48;100.00;148620.31;5071426;28;20344;-75
2022/08/13 06:18:26;;;;;;;;;;;;;;;23.17;100.00;148543.28;5070831;28;19917;-76
2022/08/13 06:20:53;;;;;;;;;;;;;;;22.59;100.00;148399.53;5072547;28;19920;-77
2022/08/13 06:23:22;;;;;;;;;;;;;;;22.60;100.00;148400.78;5089777;28;20023;-77
2022/08/13 06:25:47;;;;;;;;;;;;;;;22.46;100.00;148366.16;5092653;28;19920;-75
2022/08/13 06:28:16;;;;;;;;;;;;;;;22.61;100.00;148403.38;5091946;28;20215;-78
2022/08/13 06:30:43;;;;;;;;;;;;;;;22.67;100.00;148418.78;5092522;28;19916;-77
2022/08/13 06:33:10;;;;;;;;;;;;;;;22.72;100.00;148431.59;5091183;28;20045;-75
2022/08/13 06:35:35;;;;;;;;;;;;;;;22.44;100.00;148359.75;5072862;28;19995;-77
2022/08/13 06:38:00;;;;;;;;;;;;;;;22.44;100.00;148361.03;5081401;28;19991;-77
2022/08/13 06:40:33;;;;;;;;;;;;;;;22.34;100.00;148336.66;5082575;28;19920;-77
2022/08/13 06:43:01;;;;;;;;;;;;;;;22.62;100.00;148405.91;5091996;28;19920;-76
2022/08/13 06:45:27;;;;;;;;;;;;;;;23.29;100.00;148572.81;5092721;28;19916;-77
2022/08/13 06:47:52;;;;;;;;;;;;;;;24.22;100.00;148805.22;5091672;28;19931;-78
2022/08/13 06:50:17;;;;;;;;;;;;;;;24.47;100.00;148866.88;5091670;28;19916;-78
2022/08/13 06:52:44;;;;;;;;;;;;;;;24.20;100.00;148800.09;5091930;28;19920;-76
2022/08/13 06:55:09;;;;;;;;;;;;;;;23.55;100.00;148636.97;5091698;28;19916;-76
2022/08/13 06:57:38;;;;;;;;;;;;;;;23.48;100.00;148621.56;5092435;28;19976;-76
2022/08/13 07:00:04;;;;;;;;;;;;;;;23.88;100.00;148719.19;5093208;28;19920;-76
2022/08/13 07:02:34;;;;;;;;;;;;;;;24.16;100.00;148789.81;5091890;28;20053;-76
2022/08/13 07:04:59;;;;;;;;;;;;;;;25.43;100.00;149108.59;5092275;28;20280;-78
2022/08/13 07:07:25;;;;;;;;;;;;;;;26.61;100.00;149403.06;5092037;28;19916;-76
2022/08/13 07:09:54;;;;;;;;;;;;;;;26.43;100.00;149358.06;5092515;28;20354;-78
2022/08/13 07:12:20;;;;;;;;;;;;;;;26.86;100.00;149466.19;5092524;28;20345;-78
2022/08/13 07:14:46;;;;;;;;;;;;;;;26.81;100.00;149452.00;5091859;28;19942;-77
2022/08/13 07:17:11;;;;;;;;;;;;;;;26.87;100.00;149468.72;5092241;28;19916;-77
2022/08/13 07:19:37;;;;;;;;;;;;;;;27.47;100.00;149616.75;5092156;28;19980;-78
2022/08/13 07:22:03;;;;;;;;;;;;;;;28.73;100.00;149932.25;5091474;28;19920;-76
2022/08/13 07:24:35;;;;;;;;;;;;;;;28.09;100.00;149773.84;5091793;28;20010;-78
2022/08/13 07:27:07;;;;;;;;;;;;;;;28.40;100.00;149849.78;5093197;28;19916;-78
2022/08/13 07:29:35;;;;;;;;;;;;;;;29.37;100.00;150093.34;5092668;28;19920;-78
2022/08/13 07:32:02;;;;;;;;;;;;;;;29.38;100.00;150094.63;5091803;28;20288;-78
2022/08/13 07:34:37;;;;;;;;;;;;;;;28.96;100.00;149991.53;5091963;28;19916;-78
2022/08/13 07:37:03;;;;;;;;;;;;;;;28.99;100.00;149999.28;5091135;28;19928;-78
2022/08/13 07:39:30;;;;;;;;;;;;;;;29.09;100.00;150022.47;5092186;28;19945;-79
2022/08/13 07:41:55;;;;;;;;;;;;;;;29.77;100.00;150193.88;5092661;28;19932;-78
2022/08/13 07:44:23;;;;;;;;;;;;;;;30.51;100.00;150378.28;5092217;28;19923;-79
2022/08/13 07:46:52;;;;;;;;;;;;;;;30.11;100.00;150278.94;5093439;28;19916;-78
2022/08/13 07:49:19;;;;;;;;;;;;;;;30.51;100.00;150379.56;5091974;28;20030;-79
2022/08/13 07:51:44;;;;;;;;;;;;;;;30.25;100.00;150313.75;5092274;28;20023;-79
2022/08/13 07:54:11;;;;;;;;;;;;;;;29.67;100.00;150169.34;5092055;28;20387;-79
2022/08/13 07:56:36;;;;;;;;;;;;;;;30.63;100.00;150407.97;5091620;28;20323;-77
2022/08/13 07:59:18;;;;;;;;;;;;;;;30.75;100.00;150440.19;5089030;28;20101;-75
2022/08/13 08:01:48;;;;;;;;;;;;;;;30.24;100.00;150312.47;5090409;28;20008;-79
2022/08/13 08:04:15;;;;;;;;;;;;;;;30.61;100.00;150404.09;5089206;28;19920;-76
2022/08/13 08:06:42;;;;;;;;;;;;;;;30.59;100.00;150400.22;5090846;28;20018;-75
2022/08/13 08:09:08;;;;;;;;;;;;;;;30.61;100.00;150404.09;5090650;28;19919;-78
2022/08/13 08:14:18;;;;;;;;;;;;;;;30.61;100.00;150404.09;5091824;28;19918;-78
2022/08/13 08:16:46;;;;;;;;;;;;;;;30.21;100.00;150304.75;5090792;28;19940;-75
2022/08/13 08:19:12;;;;;;;;;;;;;;;30.24;100.00;150312.47;5090492;28;19923;-76
2022/08/13 08:21:40;;;;;;;;;;;;;;;30.32;100.00;150330.56;5091310;28;19916;-78
2022/08/13 08:24:05;;;;;;;;;;;;;;;30.22;100.00;150306.03;5090755;28;19919;-78
2022/08/13 08:26:32;;;;;;;;;;;;;;;31.18;100.00;150545.97;5090386;28;19923;-80
2022/08/13 08:28:58;;;;;;;;;;;;;;;30.13;100.00;150282.81;5090923;28;19917;-79
2022/08/13 08:31:24;;;;;;;;;;;;;;;30.80;100.00;150451.78;5091117;28;19919;-79
2022/08/13 08:33:54;;;;;;;;;;;;;;;30.34;100.00;150336.97;5091939;28;19916;-79
2022/08/13 08:36:20;;;;;;;;;;;;;;;30.29;100.00;150322.81;5090839;28;19974;-79
2022/08/13 08:44:16;;;;;;;;;;;;;;;30.20;100.00;150300.88;5092223;28;20016;-75
2022/08/13 08:46:43;;;;;;;;;;;;;;;30.15;100.00;150288.00;5090711;28;19924;-79
2022/08/13 08:49:09;;;;;;;;;;;;;;;30.69;100.00;150424.72;5090908;28;19916;-77
2022/08/13 08:51:35;;;;;;;;;;;;;;;30.78;100.00;150446.66;5092957;28;19955;-79
2022/08/13 08:54:01;;;;;;;;;;;;;;;31.36;100.00;150591.16;5094558;28;20030;-77
2022/08/13 08:56:28;;;;;;;;;;;;;;;31.32;100.00;150582.09;5094843;28;19941;-78
2022/08/13 08:58:55;;;;;;;;;;;;;;;31.53;100.00;150633.72;5094233;28;19924;-76
2022/08/13 09:01:24;;;;;;;;;;;;;;;31.72;100.00;150682.75;5094554;28;19916;-79
2022/08/13 09:03:51;;;;;;;;;;;;;;;30.21;100.00;150303.47;5095036;28;19916;-80
2022/08/13 09:06:18;;;;;;;;;;;;;;;30.20;100.00;150300.88;5094627;28;19970;-80
2022/08/13 09:08:46;;;;;;;;;;;;;;;30.71;100.00;150429.84;5093599;28;20011;-80
2022/08/13 09:11:12;;;;;;;;;;;;;;;30.54;100.00;150386.03;5093922;28;19913;-78
2022/08/13 09:13:40;;;;;;;;;;;;;;;30.25;100.00;150315.09;5128778;27;19916;-80
2022/08/13 09:16:06;;;;;;;;;;;;;;;29.54;100.00;150135.88;5093807;28;19912;-77
2022/08/13 09:18:32;;;;;;;;;;;;;;;29.46;100.00;150116.56;5094134;28;19939;-79
2022/08/13 09:20:58;;;;;;;;;;;;;;;29.93;100.00;150233.88;5093350;28;19942;-75
2022/08/13 09:23:26;;;;;;;;;;;;;;;29.53;100.00;150133.28;5093245;28;19980;-77
2022/08/13 09:25:51;;;;;;;;;;;;;;;29.08;100.00;150019.88;5094708;28;19998;-79
2022/08/13 09:28:23;;;;;;;;;;;;;;;29.49;100.00;150122.97;5093592;28;19966;-76
2022/08/13 09:30:49;;;;;;;;;;;;;;;29.16;100.00;150040.47;5092541;28;19923;-76
2022/08/13 09:33:15;;;;;;;;;;;;;;;28.99;100.00;149999.28;5091946;28;19926;-76
2022/08/13 09:35:40;;;;;;;;;;;;;;;28.79;100.00;149947.72;5092015;28;20011;-76
2022/08/13 09:38:09;;;;;;;;;;;;;;;29.07;100.00;150018.59;5091234;28;19928;-76
2022/08/13 09:40:38;;;;;;;;;;;;;;;28.97;100.00;149992.81;5092787;28;19950;-76
2022/08/13 09:43:08;;;;;;;;;;;;;;;28.62;100.00;149906.53;5092151;28;19920;-77
2022/08/13 09:45:33;;;;;;;;;;;;;;;28.44;100.00;149860.13;5092374;28;20030;-79
2022/08/13 09:47:59;;;;;;;;;;;;;;;29.03;100.00;150007.00;5093718;28;19952;-78
2022/08/13 09:50:25;;;;;;;;;;;;;;;28.88;100.00;149970.91;5093341;28;20347;-77
2022/08/13 09:52:55;;;;;;;;;;;;;;;28.53;100.00;149882.03;5093947;28;19916;-78
2022/08/13 09:55:23;;;;;;;;;;;;;;;28.85;100.00;149963.16;5093541;28;19970;-81
2022/08/13 09:57:48;;;;;;;;;;;;;;;29.43;100.00;150108.81;5093862;28;20443;-79
2022/08/13 10:00:22;;;;;;;;;;;;;;;29.64;100.00;150160.34;5094213;28;19959;-79
2022/08/13 10:02:56;;;;;;;;;;;;;;;28.87;100.00;149968.34;5093058;28;19920;-79
2022/08/13 10:05:22;;;;;;;;;;;;;;;29.05;100.00;150012.16;5093353;28;19974;-80
2022/08/13 10:07:47;;;;;;;;;;;;;;;29.06;100.00;150016.00;5093580;28;19916;-79
2022/08/13 10:10:15;;;;;;;;;;;;;;;29.43;100.00;150107.50;5093125;28;20125;-79
2022/08/13 10:12:43;;;;;;;;;;;;;;;29.38;100.00;150094.63;5093629;28;19916;-78
2022/08/13 10:15:08;;;;;;;;;;;;;;;29.49;100.00;150124.28;5093540;28;19912;-79
2022/08/13 10:17:48;;;;;;;;;;;;;;;29.33;100.00;150084.34;5092780;28;19920;-78
2022/08/13 10:20:24;;;;;;;;;;;;;;;29.06;100.00;150016.00;5093591;28;19940;-80
2022/08/13 10:22:50;;;;;;;;;;;;;;;28.78;100.00;149946.44;5094223;28;19916;-78
2022/08/13 10:25:16;;;;;;;;;;;;;;;29.03;100.00;150008.28;5093311;28;19959;-77
2022/08/13 10:27:41;;;;;;;;;;;;;;;28.80;100.00;149950.31;5093941;28;20003;-79
2022/08/13 10:30:07;;;;;;;;;;;;;;;28.76;100.00;149940.00;5094100;28;20356;-78
2022/08/13 10:32:33;;;;;;;;;;;;;;;28.95;100.00;149987.69;5093454;28;19916;-79
2022/08/13 10:35:02;;;;;;;;;;;;;;;29.43;100.00;150108.81;5094046;28;19923;-77
2022/08/13 10:37:28;;;;;;;;;;;;;;;29.75;100.00;150188.69;5092484;28;19920;-75
2022/08/13 10:39:54;;;;;;;;;;;;;;;29.95;100.00;150237.75;5090466;28;19916;-77
2022/08/13 10:42:21;;;;;;;;;;;;;;;29.78;100.00;150196.44;5092388;28;19927;-78
2022/08/13 10:44:47;;;;;;;;;;;;;;;29.29;100.00;150074.03;5092605;28;20379;-78
2022/08/13 10:47:13;;;;;;;;;;;;;;;29.51;100.00;150128.16;5092022;28;20649;-76
2022/08/13 10:49:38;;;;;;;;;;;;;;;29.24;100.00;150061.16;5092342;28;19912;-78
2022/08/13 10:52:03;;;;;;;;;;;;;;;29.55;100.00;150138.44;5091916;28;19939;-76
2022/08/13 10:54:31;;;;;;;;;;;;;;;29.76;100.00;150190.00;5092093;28;20325;-77
2022/08/13 10:56:56;;;;;;;;;;;;;;;29.23;100.00;150058.56;5091860;28;19938;-78
2022/08/13 10:59:22;;;;;;;;;;;;;;;29.29;100.00;150074.03;5091785;28;20372;-77
2022/08/13 11:01:47;;;;;;;;;;;;;;;29.63;100.00;150157.75;5091475;28;19924;-75
2022/08/13 11:04:13;;;;;;;;;;;;;;;29.85;100.00;150213.25;5090960;28;19967;-75
2022/08/13 11:06:39;;;;;;;;;;;;;;;29.63;100.00;150159.09;5091744;28;20010;-76
2022/08/13 11:09:05;;;;;;;;;;;;;;;29.87;100.00;150218.41;5091352;28;20007;-77
2022/08/13 11:11:31;;;;;;;;;;;;;;;30.26;100.00;150316.34;5091892;28;19920;-75
2022/08/13 11:13:56;;;;;;;;;;;;;;;30.70;100.00;150427.31;5090645;28;19916;-76
2022/08/13 11:18:54;;;;;;;;;;;;;;;30.43;100.00;150360.22;5123998;27;19966;-79
2022/08/13 11:21:20;;;;;;;;;;;;;;;30.50;100.00;150377.03;5091335;28;20391;-75
2022/08/13 11:23:46;;;;;;;;;;;;;;;29.66;100.00;150165.50;5091621;28;19952;-75
2022/08/13 11:26:11;;;;;;;;;;;;;;;29.69;100.00;150174.53;5091013;28;20385;-75
2022/08/13 11:28:36;;;;;;;;;;;;;;;29.98;100.00;150245.47;5091214;28;19916;-77
2022/08/13 11:31:02;;;;;;;;;;;;;;;30.20;100.00;150302.16;5090600;28;19960;-75
2022/08/13 11:33:31;;;;;;;;;;;;;;;30.43;100.00;150360.22;5091133;28;19916;-73
2022/08/13 11:35:57;;;;;;;;;;;;;;;30.32;100.00;150331.81;5090295;28;19916;-75
2022/08/13 11:38:22;;;;;;;;;;;;;;;30.04;100.00;150260.94;5108370;28;19931;-76
2022/08/13 11:40:57;;;;;;;;;;;;;;;30.05;100.00;150264.81;5091034;28;19917;-76
2022/08/13 11:43:24;;;;;;;;;;;;;;;30.42;100.00;150357.69;5090151;28;19962;-74
2022/08/13 11:45:50;;;;;;;;;;;;;;;30.09;100.00;150273.81;5091127;28;19923;-74
2022/08/13 11:48:18;;;;;;;;;;;;;;;30.06;100.00;150267.41;5090436;28;20287;-76
2022/08/13 11:50:43;;;;;;;;;;;;;;;30.04;100.00;150262.22;5090832;28;19916;-76
2022/08/13 11:53:09;;;;;;;;;;;;;;;30.49;100.00;150373.16;5108182;28;19936;-80
2022/08/13 11:55:34;;;;;;;;;;;;;;;30.67;100.00;150419.56;5091634;28;19916;-78
2022/08/13 11:58:01;;;;;;;;;;;;;;;31.11;93.21;150529.22;5090735;28;19923;-77
2022/08/13 12:00:26;;;;;;;;;;;;;;;30.77;92.71;150445.31;5091725;28;20030;-79
2022/08/13 12:02:52;;;;;;;;;;;;;;;31.05;92.46;150515.03;5090836;28;20399;-77
2022/08/13 12:05:17;;;;;;;;;;;;;;;31.31;88.38;150579.53;5090348;28;20233;-75
2022/08/13 12:07:42;;;;;;;;;;;;;;;31.22;91.06;150556.31;5091883;28;19993;-79
2022/08/13 12:10:08;;;;;;;;;;;;;;;31.05;92.93;150515.03;5124390;28;19928;-78
2022/08/13 12:12:33;;;;;;;;;;;;;;;30.81;100.00;150454.38;5090649;28;19930;-79
2022/08/13 12:14:59;;;;;;;;;;;;;;;30.47;89.10;150367.97;5090735;28;20002;-76
2022/08/13 12:17:24;;;;;;;;;;;;;;;30.46;92.27;150365.41;5090337;28;19941;-76
2022/08/13 12:19:49;;;;;;;;;;;;;;;30.59;91.18;150398.91;5090753;28;19916;-76
2022/08/13 12:22:15;;;;;;;;;;;;;;;30.73;91.35;150435.03;5090392;28;19916;-77
2022/08/13 12:24:40;;;;;;;;;;;;;;;30.84;100.00;150460.81;5107042;28;19959;-76
2022/08/13 12:27:05;;;;;;;;;;;;;;;30.77;88.45;150445.31;5092115;28;20375;-80
2022/08/13 12:29:31;;;;;;;;;;;;;;;31.04;95.83;150512.44;5094382;28;19916;-79
2022/08/13 12:31:56;;;;;;;;;;;;;;;30.97;90.22;150494.41;5094439;28;19969;-78
2022/08/13 12:34:24;;;;;;;;;;;;;;;31.31;86.99;150579.53;5095184;28;19927;-78
2022/08/13 12:36:49;;;;;;;;;;;;;;;31.47;81.63;150619.50;5094743;28;20005;-80
2022/08/13 12:39:15;;;;;;;;;;;;;;;31.89;77.72;150724.06;5094445;28;19944;-79
2022/08/13 12:41:41;;;;;;;;;;;;;;;31.96;75.41;150742.09;5094855;28;19939;-79
2022/08/13 12:44:10;;;;;;;;;;;;;;;31.79;80.17;150699.53;5111787;28;20411;-79
2022/08/13 12:46:35;;;;;;;;;;;;;;;31.30;77.32;150578.22;5094775;28;19942;-78
2022/08/13 12:49:02;;;;;;;;;;;;;;;31.47;81.54;150619.50;5094465;28;19916;-79